Time,TemperatureF,DewpointF,PressureIn,WindDirection,WindDirectionDegrees,WindSpeedMPH,WindSpeedGustMPH,Humidity,HourlyPrecipIn,Conditions,Clouds,dailyrainin,SoftwareType,DateUTC
2013-08-25 01:52:00,61.0,-99.9,30.23,WSW,252,7.0,8.0,-999,-99.99,,,-99.99,,2013-08-25 05:52:00,
2013-08-25 03:00:00,59.0,-99.9,30.22,West,268,4.0,5.0,-999,-99.99,,,-99.99,,2013-08-25 07:00:00,
2013-08-25 03:52:00,59.0,-99.9,30.22,West,268,4.0,5.0,-999,-99.99,,,-99.99,,2013-08-25 07:52:00,
2013-08-25 04:53:00,59.0,-99.9,30.23,NNE,25,10.0,13.0,-999,-99.99,,,-99.99,,2013-08-25 08:53:00,
2013-08-25 05:10:00,60.0,-99.9,30.24,North,11,6.0,7.0,-999,-99.99,,,-99.99,,2013-08-25 09:10:00,
2013-08-25 05:55:00,60.0,-99.9,30.24,North,11,6.0,7.0,-999,-99.99,,,-99.99,,2013-08-25 09:55:00,
2013-08-25 06:03:00,60.0,-99.9,30.24,North,11,6.0,7.0,-999,-99.99,,,-99.99,,2013-08-25 10:03:00,
2013-08-25 06:53:00,60.0,-99.9,30.26,North,1,6.0,7.0,-999,-99.99,,,-99.99,,2013-08-25 10:53:00,
2013-08-25 07:00:00,61.0,-99.9,30.28,NNE,12,4.0,5.0,-999,-99.99,,,-99.99,,2013-08-25 11:00:00,
2013-08-25 07:52:00,61.0,-99.9,30.28,NNE,12,4.0,5.0,-999,-99.99,,,-99.99,,2013-08-25 11:52:00,
2013-08-25 08:52:00,61.0,-99.9,30.29,NNW,336,3.0,4.0,-999,-99.99,,,-99.99,,2013-08-25 12:52:00,
2013-08-25 09:52:00,62.0,-99.9,30.29,ENE,65,2.0,3.0,-999,-99.99,,,-99.99,,2013-08-25 13:52:00,
2013-08-25 11:30:00,64.0,-99.9,30.25,South,183,3.0,3.0,-999,-99.99,,,-99.99,,2013-08-25 15:30:00,
2013-08-25 11:55:00,68.0,-99.9,30.26,East,86,1.0,2.0,-999,-99.99,,,-99.99,,2013-08-25 15:55:00,
2013-08-25 12:00:00,66.0,-99.9,30.24,SSW,194,4.0,5.0,-999,-99.99,,,-99.99,,2013-08-25 16:00:00,
2013-08-25 12:14:00,64.0,-99.9,30.25,South,183,3.0,3.0,-999,-99.99,,,-99.99,,2013-08-25 16:14:00,
2013-08-25 12:24:00,64.0,-99.9,30.25,South,183,3.0,3.0,-999,-99.99,,,-99.99,,2013-08-25 16:24:00,
2013-08-25 12:54:00,66.0,-99.9,30.24,SSW,194,4.0,5.0,-999,-99.99,,,-99.99,,2013-08-25 16:54:00,
2013-08-25 18:30:00,62.0,-99.9,30.14,SW,214,10.0,11.0,-999,-99.99,,,-99.99,,2013-08-25 22:30:00,
2013-08-25 19:10:00,62.0,-99.9,30.14,SW,227,7.0,9.0,-999,-99.99,,,-99.99,,2013-08-25 23:10:00,
2013-08-25 19:12:00,62.0,-99.9,30.14,SW,214,10.0,11.0,-999,-99.99,,,-99.99,,2013-08-25 23:12:00,
2013-08-25 19:23:00,62.0,-99.9,30.14,SW,214,10.0,11.0,-999,-99.99,,,-99.99,,2013-08-25 23:23:00,
2013-08-25 19:53:00,62.0,-99.9,30.14,SW,227,7.0,9.0,-999,-99.99,,,-99.99,,2013-08-25 23:53:00,
2013-08-25 20:02:00,62.0,-99.9,30.14,SW,227,7.0,9.0,-999,-99.99,,,-99.99,,2013-08-26 00:02:00,
2013-08-25 20:30:00,62.0,-99.9,30.14,SW,220,7.0,8.0,-999,-99.99,,,-99.99,,2013-08-26 00:30:00,
2013-08-25 21:11:00,62.0,-99.9,30.14,SW,220,7.0,8.0,-999,-99.99,,,-99.99,,2013-08-26 01:11:00,
2013-08-25 21:22:00,62.0,-99.9,30.14,SW,220,7.0,8.0,-999,-99.99,,,-99.99,,2013-08-26 01:22:00,
2013-08-25 21:30:00,62.0,-99.9,30.13,SW,233,6.0,7.0,-999,-99.99,,,-99.99,,2013-08-26 01:30:00,
2013-08-25 22:10:00,62.0,-99.9,30.13,SSW,210,7.0,8.0,-999,-99.99,,,-99.99,,2013-08-26 02:10:00,
2013-08-25 22:11:00,62.0,-99.9,30.13,SW,233,6.0,7.0,-999,-99.99,,,-99.99,,2013-08-26 02:11:00,
2013-08-25 22:22:00,62.0,-99.9,30.13,SW,233,6.0,7.0,-999,-99.99,,,-99.99,,2013-08-26 02:22:00,
2013-08-25 23:10:00,61.0,-99.9,30.11,SW,215,6.0,7.0,-999,-99.99,,,-99.99,,2013-08-26 03:10:00,